createdAt,value
2022-07-29T00:00:40.325Z,17.20
2022-07-29T00:03:08.223Z,17.20
2022-07-29T00:08:04.044Z,20.40
2022-07-29T00:10:31.759Z,17.20
2022-07-29T00:13:00.289Z,17.20
2022-07-29T00:15:28.172Z,17.20
2022-07-29T00:17:55.911Z,17.10
2022-07-29T00:20:23.571Z,17.10
2022-07-29T00:22:51.282Z,17.10
2022-07-29T00:25:19.020Z,17.00
2022-07-29T00:27:49.819Z,17.00
2022-07-29T00:30:18.782Z,17.00
2022-07-29T00:32:46.507Z,17.00
2022-07-29T00:35:32.619Z,17.00
2022-07-29T00:38:01.249Z,17.00
2022-07-29T00:40:29.766Z,16.90
2022-07-29T00:42:57.441Z,16.90
2022-07-29T00:45:27.264Z,16.90
2022-07-29T00:47:55.360Z,16.90
2022-07-29T00:50:24.291Z,16.80
2022-07-29T00:52:52.411Z,16.80
2022-07-29T00:55:21.149Z,16.80
2022-07-29T01:00:23.005Z,16.70
2022-07-29T01:02:51.546Z,16.70
2022-07-29T01:05:22.104Z,16.70
2022-07-29T01:07:52.955Z,16.70
2022-07-29T01:10:22.275Z,16.60
2022-07-29T01:12:52.307Z,16.60
2022-07-29T01:15:20.115Z,16.70
2022-07-29T01:18:08.467Z,16.70
2022-07-29T01:20:54.372Z,16.60
2022-07-29T01:23:43.851Z,16.60
2022-07-29T01:26:26.511Z,16.60
2022-07-29T01:29:12.309Z,16.70
2022-07-29T01:31:59.492Z,16.60
2022-07-29T01:34:43.396Z,16.60
2022-07-29T01:37:37.556Z,16.60
2022-07-29T01:40:10.827Z,16.60
2022-07-29T01:42:48.269Z,16.50
2022-07-29T01:45:18.775Z,16.50
2022-07-29T01:47:57.737Z,16.50
2022-07-29T01:50:41.381Z,16.50
2022-07-29T01:53:11.595Z,16.50
2022-07-29T01:55:47.114Z,16.50
2022-07-29T01:58:18.255Z,16.50
2022-07-29T02:00:50.278Z,16.40
2022-07-29T02:03:19.728Z,16.40
2022-07-29T02:05:49.706Z,16.40
2022-07-29T02:08:19.434Z,16.40
2022-07-29T02:10:49.465Z,16.40
2022-07-29T02:13:19.103Z,16.40
2022-07-29T02:15:48.873Z,16.40
2022-07-29T02:18:21.522Z,16.30
2022-07-29T02:20:51.485Z,16.30
2022-07-29T02:23:21.590Z,16.30
2022-07-29T02:25:52.709Z,16.40
2022-07-29T02:28:22.551Z,16.30
2022-07-29T02:30:53.798Z,16.30
2022-07-29T02:33:24.426Z,16.30
2022-07-29T02:35:52.920Z,16.20
2022-07-29T02:38:42.198Z,16.20
2022-07-29T02:41:13.015Z,16.20
2022-07-29T02:43:43.237Z,16.20
2022-07-29T02:46:29.491Z,16.20
2022-07-29T02:49:10.685Z,16.20
2022-07-29T02:51:47.812Z,16.10
2022-07-29T02:54:32.820Z,16.10
2022-07-29T02:57:04.991Z,16.10
2022-07-29T02:59:35.379Z,16.00
2022-07-29T03:02:05.747Z,16.00
2022-07-29T03:04:35.398Z,16.00
2022-07-29T03:07:04.725Z,16.00
2022-07-29T03:09:32.770Z,16.00
2022-07-29T03:12:01.462Z,16.00
2022-07-29T03:14:30.897Z,16.00
2022-07-29T03:16:59.394Z,16.00
2022-07-29T03:19:28.006Z,16.00
2022-07-29T03:21:59.330Z,16.00
2022-07-29T03:24:34.949Z,15.90
2022-07-29T03:27:04.025Z,16.00
2022-07-29T03:29:32.990Z,15.90
2022-07-29T03:32:08.334Z,15.90
2022-07-29T03:34:39.086Z,15.90
2022-07-29T03:37:07.582Z,15.80
2022-07-29T03:39:40.954Z,15.80
2022-07-29T03:42:11.684Z,15.80
2022-07-29T03:44:42.648Z,15.70
2022-07-29T03:47:11.956Z,15.70
2022-07-29T03:49:41.257Z,15.60
2022-07-29T03:52:09.845Z,15.60
2022-07-29T03:54:37.618Z,15.50
2022-07-29T03:57:07.132Z,15.40
2022-07-29T03:59:35.488Z,15.40
2022-07-29T04:02:05.757Z,15.30
2022-07-29T04:04:37.165Z,15.30
2022-07-29T04:07:05.169Z,15.30
2022-07-29T04:12:02.994Z,15.30
2022-07-29T04:14:33.122Z,15.10
2022-07-29T04:17:01.797Z,15.10
2022-07-29T04:19:29.390Z,16.10
2022-07-29T04:21:57.863Z,15.10
2022-07-29T04:24:25.765Z,15.00
2022-07-29T04:26:53.920Z,15.00
2022-07-29T04:29:21.514Z,15.10
2022-07-29T04:31:49.195Z,15.00
2022-07-29T04:34:17.582Z,15.00
2022-07-29T04:36:45.489Z,15.00
2022-07-29T04:39:15.367Z,15.00
2022-07-29T04:41:45.830Z,15.10
2022-07-29T04:44:14.399Z,15.10
2022-07-29T04:46:42.271Z,15.00
2022-07-29T04:49:10.176Z,15.10
2022-07-29T04:51:38.826Z,15.00
2022-07-29T04:59:02.696Z,15.30
2022-07-29T05:01:30.461Z,15.10
2022-07-29T05:04:00.447Z,15.10
2022-07-29T05:06:28.487Z,15.00
2022-07-29T05:08:56.234Z,15.10
2022-07-29T05:11:28.615Z,15.10
2022-07-29T05:13:57.966Z,15.00
2022-07-29T05:16:25.623Z,14.80
2022-07-29T05:18:53.347Z,15.00
2022-07-29T05:21:20.983Z,15.00
2022-07-29T05:23:48.696Z,15.00
2022-07-29T05:26:16.945Z,14.90
2022-07-29T05:28:44.611Z,14.90
2022-07-29T05:33:40.479Z,14.90
2022-07-29T05:36:08.614Z,14.90
2022-07-29T05:38:37.445Z,15.00
2022-07-29T05:41:06.521Z,14.90
2022-07-29T05:43:34.465Z,15.00
2022-07-29T05:46:02.105Z,15.00
2022-07-29T05:50:57.740Z,15.00
2022-07-29T05:53:25.353Z,15.00
2022-07-29T05:55:53.825Z,15.10
2022-07-29T05:58:21.677Z,15.10
2022-07-29T06:00:49.303Z,15.10
2022-07-29T06:03:17.135Z,15.10
2022-07-29T06:05:44.923Z,15.10
2022-07-29T06:08:12.613Z,15.10
2022-07-29T06:10:40.262Z,15.10
2022-07-29T06:15:37.942Z,15.10
2022-07-29T06:18:09.978Z,15.10
2022-07-29T06:20:38.680Z,15.10
2022-07-29T06:23:06.253Z,15.10
2022-07-29T06:25:36.400Z,15.10
2022-07-29T06:28:04.482Z,15.10
2022-07-29T06:30:32.451Z,15.20
2022-07-29T06:33:01.369Z,15.20
2022-07-29T06:38:31.593Z,15.30
2022-07-29T06:41:02.248Z,15.30
2022-07-29T06:43:52.249Z,15.40
2022-07-29T06:46:23.963Z,15.50
2022-07-29T06:48:53.344Z,15.50
2022-07-29T06:51:22.927Z,15.60
2022-07-29T06:53:59.075Z,15.70
2022-07-29T06:56:38.965Z,15.80
2022-07-29T06:59:09.941Z,15.90
2022-07-29T07:01:39.366Z,16.00
2022-07-29T07:04:10.003Z,16.10
2022-07-29T07:06:38.861Z,16.20
2022-07-29T07:09:07.180Z,16.30
2022-07-29T07:11:34.958Z,16.40
2022-07-29T07:14:04.097Z,16.50
2022-07-29T07:16:32.829Z,16.50
2022-07-29T07:19:01.823Z,16.50
2022-07-29T07:21:30.610Z,16.50
2022-07-29T07:23:59.308Z,16.50
2022-07-29T07:26:28.123Z,16.50
2022-07-29T07:28:55.949Z,16.50
2022-07-29T07:31:23.746Z,16.50
2022-07-29T07:33:52.724Z,16.50
2022-07-29T07:36:20.658Z,16.40
2022-07-29T07:41:16.116Z,16.60
2022-07-29T07:43:43.667Z,16.60
2022-07-29T07:46:11.315Z,16.80
2022-07-29T07:48:39.781Z,16.80
2022-07-29T07:51:08.331Z,16.90
2022-07-29T07:53:36.182Z,16.90
2022-07-29T07:56:11.003Z,17.00
2022-07-29T07:58:39.835Z,17.10
2022-07-29T08:01:08.537Z,17.10
2022-07-29T08:03:36.581Z,17.20
2022-07-29T08:06:04.806Z,17.30
2022-07-29T08:08:32.522Z,17.30
2022-07-29T08:11:06.866Z,17.40
2022-07-29T08:13:39.939Z,17.40
2022-07-29T08:16:16.470Z,17.40
2022-07-29T08:18:46.374Z,17.50
2022-07-29T08:21:15.873Z,17.60
2022-07-29T08:24:22.646Z,17.60
2022-07-29T08:26:51.288Z,17.70
2022-07-29T08:29:20.178Z,17.80
2022-07-29T08:31:48.041Z,17.90
2022-07-29T08:34:15.672Z,18.00
2022-07-29T08:36:43.350Z,18.00
2022-07-29T08:39:11.152Z,18.20
2022-07-29T08:41:38.908Z,18.30
2022-07-29T08:44:06.565Z,18.40
2022-07-29T08:46:34.504Z,18.50
2022-07-29T08:49:02.842Z,18.50
2022-07-29T08:51:34.632Z,18.70
2022-07-29T08:54:18.867Z,18.90
2022-07-29T08:56:50.909Z,19.00
2022-07-29T08:59:25.614Z,19.20
2022-07-29T09:01:54.914Z,19.40
2022-07-29T09:04:26.013Z,19.50
2022-07-29T09:06:55.510Z,19.60
2022-07-29T09:09:23.389Z,19.60
2022-07-29T09:11:51.106Z,21.40
2022-07-29T09:14:18.921Z,19.90
2022-07-29T09:16:57.424Z,20.00
2022-07-29T09:19:35.852Z,20.00
2022-07-29T09:22:06.579Z,20.40
2022-07-29T09:24:42.848Z,20.40
2022-07-29T09:27:27.812Z,20.80
2022-07-29T09:30:13.462Z,21.00
2022-07-29T09:33:03.973Z,21.00
2022-07-29T09:35:32.198Z,21.30
2022-07-29T09:38:11.590Z,21.30
2022-07-29T09:40:40.145Z,21.40
2022-07-29T09:43:13.399Z,21.50
2022-07-29T09:45:41.444Z,21.60
2022-07-29T09:48:18.331Z,21.50
2022-07-29T09:50:50.652Z,21.60
2022-07-29T09:53:41.187Z,21.60
2022-07-29T09:56:15.551Z,21.70
2022-07-29T09:58:45.121Z,21.60
2022-07-29T10:01:13.761Z,21.60
2022-07-29T10:03:54.150Z,21.70
2022-07-29T10:06:21.797Z,21.80
2022-07-29T10:08:50.781Z,21.80
2022-07-29T10:11:19.872Z,21.80
2022-07-29T10:13:49.436Z,21.90
2022-07-29T10:16:17.766Z,22.00
2022-07-29T10:18:47.785Z,22.10
2022-07-29T10:21:22.483Z,22.10
2022-07-29T10:24:06.066Z,22.20
2022-07-29T10:26:36.538Z,22.20
2022-07-29T10:29:04.562Z,22.20
2022-07-29T10:31:53.938Z,22.20
2022-07-29T10:34:31.660Z,22.20
2022-07-29T10:37:29.442Z,22.10
2022-07-29T10:40:42.054Z,22.10
2022-07-29T10:43:23.273Z,22.10
2022-07-29T10:45:58.649Z,22.00
2022-07-29T10:48:26.764Z,22.10
2022-07-29T10:50:56.328Z,22.10
2022-07-29T10:53:25.091Z,22.20
2022-07-29T10:55:53.723Z,22.30
2022-07-29T10:58:25.272Z,22.50
2022-07-29T11:00:54.924Z,26.20
2022-07-29T11:03:50.379Z,22.80
2022-07-29T11:06:26.758Z,22.90
2022-07-29T11:09:20.286Z,23.00
2022-07-29T11:11:53.744Z,23.10
2022-07-29T11:14:57.199Z,23.40
2022-07-29T11:17:26.128Z,23.60
2022-07-29T11:20:33.814Z,23.70
2022-07-29T11:23:02.285Z,23.70
2022-07-29T11:28:23.226Z,23.80
2022-07-29T11:30:54.962Z,23.90
2022-07-29T11:33:54.125Z,23.90
2022-07-29T11:36:28.195Z,23.80
2022-07-29T11:39:36.618Z,23.80
2022-07-29T11:45:43.337Z,23.40
2022-07-29T11:48:29.411Z,23.00
2022-07-29T11:50:54.474Z,22.80
2022-07-29T11:53:22.311Z,22.70
2022-07-29T11:55:56.341Z,22.60
2022-07-29T11:58:27.162Z,22.60
2022-07-29T12:00:56.232Z,22.60
2022-07-29T12:03:32.849Z,22.70
2022-07-29T12:06:12.301Z,22.70
2022-07-29T12:07:02.820Z,23.80
2022-07-29T12:08:44.802Z,22.70
2022-07-29T12:11:22.849Z,22.60
2022-07-29T12:13:52.419Z,22.60
2022-07-29T12:16:25.722Z,22.50
2022-07-29T12:19:02.928Z,22.50
2022-07-29T12:21:52.310Z,22.50
2022-07-29T12:24:26.561Z,22.50
2022-07-29T12:26:57.165Z,22.40
2022-07-29T12:29:33.915Z,22.40
2022-07-29T12:32:05.253Z,22.30
2022-07-29T12:34:33.752Z,22.30
2022-07-29T12:37:02.207Z,22.40
2022-07-29T12:39:30.004Z,22.30
2022-07-29T12:42:04.464Z,22.40
2022-07-29T12:44:49.237Z,22.50
2022-07-29T12:47:19.173Z,22.60
2022-07-29T12:49:47.880Z,22.80
2022-07-29T12:52:30.953Z,22.90
2022-07-29T12:54:58.920Z,22.90
2022-07-29T12:57:26.929Z,22.90
2022-07-29T13:00:11.563Z,22.90
2022-07-29T13:02:39.929Z,23.00
2022-07-29T13:05:12.363Z,23.10
2022-07-29T13:07:55.576Z,23.10
2022-07-29T13:10:26.124Z,23.20
2022-07-29T13:13:16.494Z,23.20
2022-07-29T13:15:48.418Z,23.30
2022-07-29T13:18:33.594Z,23.40
2022-07-29T13:21:16.117Z,23.40
2022-07-29T13:23:44.441Z,23.60
2022-07-29T13:26:19.152Z,23.60
2022-07-29T13:28:46.642Z,24.00
2022-07-29T13:31:14.393Z,24.20
2022-07-29T13:33:42.239Z,24.30
2022-07-29T13:36:09.787Z,24.20
2022-07-29T13:38:37.276Z,24.20
2022-07-29T13:41:04.875Z,24.20
2022-07-29T13:43:33.231Z,27.50
2022-07-29T13:46:00.893Z,24.20
2022-07-29T13:48:28.625Z,24.00
2022-07-29T13:50:57.283Z,24.00
2022-07-29T13:53:26.954Z,24.10
2022-07-29T13:55:55.925Z,24.00
2022-07-29T13:58:23.889Z,24.00
2022-07-29T14:00:51.576Z,24.00
2022-07-29T14:03:19.156Z,24.00
2022-07-29T14:05:47.095Z,23.90
2022-07-29T14:08:14.858Z,23.90
2022-07-29T14:10:42.452Z,23.90
2022-07-29T14:13:24.738Z,23.90
2022-07-29T14:15:53.763Z,23.90
2022-07-29T14:18:21.634Z,23.90
2022-07-29T14:20:49.434Z,24.00
2022-07-29T14:23:16.883Z,24.00
2022-07-29T14:25:49.501Z,24.00
2022-07-29T14:28:17.377Z,24.00
2022-07-29T14:30:44.974Z,24.00
2022-07-29T14:33:12.720Z,24.00
2022-07-29T14:35:40.221Z,23.90
2022-07-29T14:38:07.867Z,23.80
2022-07-29T14:40:35.802Z,23.80
2022-07-29T14:43:03.805Z,23.80
2022-07-29T14:45:31.513Z,23.80
2022-07-29T14:47:59.667Z,23.80
2022-07-29T14:50:31.226Z,23.80
2022-07-29T14:53:02.156Z,23.80
2022-07-29T14:55:29.599Z,23.80
2022-07-29T14:58:07.775Z,23.70
2022-07-29T15:00:38.607Z,23.70
2022-07-29T15:03:06.629Z,23.60
2022-07-29T15:05:38.931Z,23.50
2022-07-29T15:08:06.290Z,23.40
2022-07-29T15:10:33.793Z,23.40
2022-07-29T15:13:01.212Z,23.30
2022-07-29T15:15:29.731Z,23.10
2022-07-29T15:17:57.345Z,22.90
2022-07-29T15:20:26.787Z,22.80
2022-07-29T15:22:56.419Z,22.60
2022-07-29T15:25:25.151Z,22.50
2022-07-29T15:27:54.784Z,22.40
2022-07-29T15:30:32.744Z,22.40
2022-07-29T15:33:02.363Z,22.30
2022-07-29T15:35:30.176Z,18.20
2022-07-29T15:37:57.639Z,22.30
2022-07-29T15:40:24.982Z,22.30
2022-07-29T15:42:52.466Z,22.30
2022-07-29T15:45:19.894Z,22.30
2022-07-29T15:47:47.285Z,22.20
2022-07-29T15:50:16.866Z,22.10
2022-07-29T15:52:44.429Z,22.10
2022-07-29T15:55:11.999Z,22.10
2022-07-29T15:57:41.069Z,22.10
2022-07-29T16:00:08.837Z,22.20
2022-07-29T16:02:36.514Z,22.10
2022-07-29T16:05:04.352Z,22.20
2022-07-29T16:07:37.753Z,22.20
2022-07-29T16:10:05.607Z,22.30
2022-07-29T16:12:33.011Z,22.30
2022-07-29T16:15:00.437Z,22.30
2022-07-29T16:17:28.386Z,22.30
2022-07-29T16:19:57.515Z,22.40
2022-07-29T16:22:25.078Z,22.40
2022-07-29T16:24:52.713Z,22.40
2022-07-29T16:27:24.766Z,22.50
2022-07-29T16:29:52.613Z,22.50
2022-07-29T16:32:22.245Z,22.50
2022-07-29T16:34:50.227Z,22.50
2022-07-29T16:37:17.828Z,22.50
2022-07-29T16:39:47.664Z,22.50
2022-07-29T16:42:31.077Z,22.60
2022-07-29T16:45:02.825Z,22.50
2022-07-29T16:47:30.469Z,22.50
2022-07-29T16:49:57.909Z,22.50
2022-07-29T16:52:25.495Z,22.40
2022-07-29T16:54:53.572Z,22.50
2022-07-29T16:57:21.944Z,22.50
2022-07-29T16:59:50.995Z,22.50
2022-07-29T17:02:18.449Z,22.70
2022-07-29T17:04:46.131Z,22.90
2022-07-29T17:07:14.195Z,22.90
2022-07-29T17:09:41.863Z,23.00
2022-07-29T17:12:09.408Z,23.00
2022-07-29T17:14:36.878Z,23.20
2022-07-29T17:17:04.942Z,23.20
2022-07-29T17:19:41.768Z,23.20
2022-07-29T17:22:15.651Z,23.20
2022-07-29T17:24:46.577Z,23.00
2022-07-29T17:27:14.974Z,22.80
2022-07-29T17:29:44.064Z,22.60
2022-07-29T17:32:11.544Z,22.50
2022-07-29T17:34:39.807Z,22.50
2022-07-29T17:37:08.091Z,22.30
2022-07-29T17:39:36.070Z,22.20
2022-07-29T17:42:04.228Z,22.10
2022-07-29T17:44:36.480Z,22.00
2022-07-29T17:47:04.919Z,21.90
2022-07-29T17:49:32.467Z,21.80
2022-07-29T17:52:01.103Z,21.80
2022-07-29T17:54:29.456Z,21.70
2022-07-29T17:56:57.227Z,21.70
2022-07-29T17:59:25.003Z,21.70
2022-07-29T18:01:53.269Z,21.50
2022-07-29T18:04:23.880Z,21.50
2022-07-29T18:06:51.592Z,21.40
2022-07-29T18:09:19.050Z,21.40
2022-07-29T18:13:26.420Z,21.30
2022-07-29T18:15:57.617Z,21.30
2022-07-29T18:18:28.231Z,21.30
2022-07-29T18:23:23.984Z,21.50
2022-07-29T18:25:51.523Z,21.50
2022-07-29T18:28:20.804Z,21.70
2022-07-29T18:30:48.534Z,21.90
2022-07-29T18:33:22.289Z,21.90
2022-07-29T18:35:52.384Z,22.20
2022-07-29T18:38:39.825Z,22.40
2022-07-29T18:41:07.648Z,22.90
2022-07-29T18:43:35.784Z,22.90
2022-07-29T18:46:05.393Z,23.10
2022-07-29T18:48:34.237Z,23.30
2022-07-29T18:51:02.038Z,23.60
2022-07-29T18:53:37.285Z,23.80
2022-07-29T18:56:05.259Z,23.80
2022-07-29T18:58:33.498Z,23.70
2022-07-29T19:01:02.019Z,23.50
2022-07-29T19:03:29.789Z,23.40
2022-07-29T19:05:57.279Z,23.40
2022-07-29T19:08:24.930Z,23.00
2022-07-29T19:10:53.460Z,22.80
2022-07-29T19:13:21.218Z,22.60
2022-07-29T19:15:49.212Z,22.50
2022-07-29T19:18:16.870Z,22.20
2022-07-29T19:20:44.471Z,22.20
2022-07-29T19:23:12.243Z,21.90
2022-07-29T19:25:53.083Z,21.90
2022-07-29T19:28:22.162Z,21.60
2022-07-29T19:30:50.166Z,21.40
2022-07-29T19:33:19.088Z,21.30
2022-07-29T19:35:50.320Z,21.10
2022-07-29T19:38:20.575Z,20.90
2022-07-29T19:40:48.235Z,20.80
2022-07-29T19:43:49.536Z,20.80
2022-07-29T19:46:03.505Z,20.70
2022-07-29T19:48:32.098Z,20.40
2022-07-29T19:50:59.741Z,20.20
2022-07-29T19:53:27.472Z,20.10
2022-07-29T19:55:55.182Z,20.10
2022-07-29T19:58:22.741Z,19.80
2022-07-29T20:00:54.853Z,19.60
2022-07-29T20:03:22.499Z,19.40
2022-07-29T20:05:51.386Z,19.20
2022-07-29T20:10:44.495Z,18.70
2022-07-29T20:13:12.960Z,18.60
2022-07-29T20:15:40.803Z,18.40
2022-07-29T20:18:09.181Z,18.30
2022-07-29T20:23:04.887Z,18.20
2022-07-29T20:25:32.498Z,18.10
2022-07-29T20:28:02.593Z,18.00
2022-07-29T20:32:58.612Z,17.90
2022-07-29T20:35:28.190Z,17.80
2022-07-29T20:37:56.708Z,17.80
2022-07-29T20:40:25.897Z,17.80
2022-07-29T20:42:56.135Z,17.80
2022-07-29T20:45:24.480Z,17.80
2022-07-29T20:47:52.499Z,17.70
2022-07-29T20:50:23.667Z,17.70
2022-07-29T20:52:52.713Z,17.60
2022-07-29T20:55:21.880Z,17.60
2022-07-29T20:57:49.648Z,17.60
2022-07-29T21:00:17.435Z,17.50
2022-07-29T21:02:45.070Z,17.40
2022-07-29T21:05:12.673Z,17.30
2022-07-29T21:10:08.589Z,17.20
2022-07-29T21:12:36.380Z,17.10
2022-07-29T21:15:06.618Z,17.10
2022-07-29T21:17:40.676Z,17.10
2022-07-29T21:20:08.841Z,17.00
2022-07-29T21:22:36.664Z,17.00
2022-07-29T21:25:05.824Z,16.90
2022-07-29T21:28:11.925Z,16.30
2022-07-29T21:33:07.727Z,16.80
2022-07-29T21:36:10.289Z,16.80
2022-07-29T21:38:23.503Z,16.90
2022-07-29T21:40:52.525Z,16.90
2022-07-29T21:43:20.507Z,17.00
2022-07-29T21:45:50.159Z,17.00
2022-07-29T21:48:19.935Z,17.00
2022-07-29T21:50:49.043Z,16.90
2022-07-29T21:53:17.516Z,15.70
2022-07-29T21:55:50.743Z,17.10
2022-07-29T21:58:18.923Z,17.00
2022-07-29T22:00:46.759Z,17.00
2022-07-29T22:03:14.514Z,17.00
2022-07-29T22:05:42.473Z,17.00
2022-07-29T22:08:10.147Z,17.00
2022-07-29T22:10:37.825Z,17.00
2022-07-29T22:13:05.646Z,16.90
2022-07-29T22:15:33.399Z,16.80
2022-07-29T22:18:01.346Z,16.80
2022-07-29T22:20:28.858Z,16.80
2022-07-29T22:22:56.385Z,16.70
2022-07-29T22:25:24.152Z,16.70
2022-07-29T22:27:51.900Z,16.70
2022-07-29T22:30:19.780Z,16.70
2022-07-29T22:32:48.074Z,16.60
2022-07-29T22:35:16.619Z,16.60
2022-07-29T22:37:45.054Z,16.60
2022-07-29T22:40:12.879Z,16.60
2022-07-29T22:45:09.997Z,16.50
2022-07-29T22:47:46.150Z,16.50
2022-07-29T22:50:17.191Z,16.50
2022-07-29T22:52:47.026Z,16.50
2022-07-29T22:55:14.975Z,16.50
2022-07-29T22:57:42.611Z,16.50
2022-07-29T23:00:10.909Z,16.40
2022-07-29T23:02:40.158Z,16.40
2022-07-29T23:05:09.061Z,16.50
2022-07-29T23:07:36.761Z,16.50
2022-07-29T23:10:04.975Z,16.50
2022-07-29T23:12:32.572Z,16.50
2022-07-29T23:15:00.158Z,16.50
2022-07-29T23:17:27.977Z,16.50
2022-07-29T23:19:55.616Z,16.50
2022-07-29T23:22:23.874Z,16.50
2022-07-29T23:24:51.866Z,16.60
2022-07-29T23:27:19.519Z,16.70
2022-07-29T23:29:47.261Z,16.80
2022-07-29T23:32:15.003Z,16.90
2022-07-29T23:34:42.933Z,17.00
2022-07-29T23:37:10.558Z,17.00
2022-07-29T23:39:38.600Z,17.10
2022-07-29T23:44:34.442Z,17.20
2022-07-29T23:47:02.713Z,17.20
2022-07-29T23:49:30.741Z,17.20
2022-07-29T23:51:58.435Z,17.30
2022-07-29T23:56:54.457Z,17.40
2022-07-29T23:59:22.094Z,17.40
